sensor_id;sensor_type;location;lat;lon;timestamp;temperature;humidity
21481;DHT22;10902;48.158;8.634;2023-01-29T00:01:06;-1.00;99.90
21481;DHT22;10902;48.158;8.634;2023-01-29T00:03:32;-0.90;99.90
21481;DHT22;10902;48.158;8.634;2023-01-29T00:05:58;-0.80;99.90
21481;DHT22;10902;48.158;8.634;2023-01-29T00:08:25;-0.80;99.90
21481;DHT22;10902;48.158;8.634;2023-01-29T00:10:51;-0.80;99.90
21481;DHT22;10902;48.158;8.634;2023-01-29T00:13:17;-0.80;99.90
21481;DHT22;10902;48.158;8.634;2023-01-29T00:15:52;-0.90;99.90
21481;DHT22;10902;48.158;8.634;2023-01-29T00:18:18;-0.80;99.90
21481;DHT22;10902;48.158;8.634;2023-01-29T00:20:44;-0.90;99.90
21481;DHT22;10902;48.158;8.634;2023-01-29T00:23:09;-0.80;99.90
21481;DHT22;10902;48.158;8.634;2023-01-29T00:25:35;-0.90;99.90
21481;DHT22;10902;48.158;8.634;2023-01-29T00:28:00;-0.90;99.90
21481;DHT22;10902;48.158;8.634;2023-01-29T00:30:26;-0.90;99.90
21481;DHT22;10902;48.158;8.634;2023-01-29T00:32:51;-1.00;99.90
21481;DHT22;10902;48.158;8.634;2023-01-29T00:35:18;-1.00;99.90
21481;DHT22;10902;48.158;8.634;2023-01-29T00:37:44;-1.00;99.90
21481;DHT22;10902;48.158;8.634;2023-01-29T00:40:10;-0.90;99.90
21481;DHT22;10902;48.158;8.634;2023-01-29T00:42:35;-0.90;99.90
21481;DHT22;10902;48.158;8.634;2023-01-29T00:45:20;-0.90;99.90
21481;DHT22;10902;48.158;8.634;2023-01-29T00:47:46;-1.00;99.90
21481;DHT22;10902;48.158;8.634;2023-01-29T00:50:11;-1.10;99.90
21481;DHT22;10902;48.158;8.634;2023-01-29T00:52:37;-1.00;99.90
21481;DHT22;10902;48.158;8.634;2023-01-29T00:55:06;-1.00;99.90
21481;DHT22;10902;48.158;8.634;2023-01-29T00:57:34;-0.90;99.90
21481;DHT22;10902;48.158;8.634;2023-01-29T01:00:00;-1.00;99.90
21481;DHT22;10902;48.158;8.634;2023-01-29T01:02:27;-1.10;99.90
21481;DHT22;10902;48.158;8.634;2023-01-29T01:05:13;-1.20;99.90
21481;DHT22;10902;48.158;8.634;2023-01-29T01:07:43;-1.20;99.90
21481;DHT22;10902;48.158;8.634;2023-01-29T01:10:13;-1.20;99.90
21481;DHT22;10902;48.158;8.634;2023-01-29T01:12:45;-1.30;99.90
21481;DHT22;10902;48.158;8.634;2023-01-29T01:15:11;-1.30;99.90
21481;DHT22;10902;48.158;8.634;2023-01-29T01:17:36;-1.30;99.90
21481;DHT22;10902;48.158;8.634;2023-01-29T01:20:02;-1.30;99.90
21481;DHT22;10902;48.158;8.634;2023-01-29T01:22:28;-1.30;99.90
21481;DHT22;10902;48.158;8.634;2023-01-29T01:24:54;-1.30;99.90
21481;DHT22;10902;48.158;8.634;2023-01-29T01:27:19;-1.30;99.90
21481;DHT22;10902;48.158;8.634;2023-01-29T01:29:45;-1.30;99.90
21481;DHT22;10902;48.158;8.634;2023-01-29T01:32:12;-1.30;99.90
21481;DHT22;10902;48.158;8.634;2023-01-29T01:34:37;-1.40;99.90
21481;DHT22;10902;48.158;8.634;2023-01-29T01:37:03;-1.30;99.90
21481;DHT22;10902;48.158;8.634;2023-01-29T01:39:29;-1.30;99.90
21481;DHT22;10902;48.158;8.634;2023-01-29T01:41:54;-1.20;99.90
21481;DHT22;10902;48.158;8.634;2023-01-29T01:44:52;-1.20;99.90
21481;DHT22;10902;48.158;8.634;2023-01-29T01:47:23;-1.20;99.90
21481;DHT22;10902;48.158;8.634;2023-01-29T01:49:52;-1.10;99.90
21481;DHT22;10902;48.158;8.634;2023-01-29T01:52:18;-1.10;99.90
21481;DHT22;10902;48.158;8.634;2023-01-29T01:54:45;-1.10;99.90
21481;DHT22;10902;48.158;8.634;2023-01-29T01:57:15;-1.10;99.90
21481;DHT22;10902;48.158;8.634;2023-01-29T01:59:46;-1.20;99.90
21481;DHT22;10902;48.158;8.634;2023-01-29T02:02:13;-1.20;99.90
21481;DHT22;10902;48.158;8.634;2023-01-29T02:04:58;-1.30;99.90
21481;DHT22;10902;48.158;8.634;2023-01-29T02:07:45;-1.40;99.90
21481;DHT22;10902;48.158;8.634;2023-01-29T02:10:37;-1.40;99.90
21481;DHT22;10902;48.158;8.634;2023-01-29T02:13:06;-1.40;99.90
21481;DHT22;10902;48.158;8.634;2023-01-29T02:15:32;-1.40;99.90
21481;DHT22;10902;48.158;8.634;2023-01-29T02:17:58;-1.50;99.90
21481;DHT22;10902;48.158;8.634;2023-01-29T02:20:28;-1.60;99.90
21481;DHT22;10902;48.158;8.634;2023-01-29T02:26:04;-1.60;99.90
21481;DHT22;10902;48.158;8.634;2023-01-29T02:28:50;-1.60;99.90
21481;DHT22;10902;48.158;8.634;2023-01-29T02:34:18;-1.50;99.90
21481;DHT22;10902;48.158;8.634;2023-01-29T02:37:04;-1.50;99.90
21481;DHT22;10902;48.158;8.634;2023-01-29T02:39:50;-1.60;99.90
21481;DHT22;10902;48.158;8.634;2023-01-29T02:45:13;-1.60;99.90
21481;DHT22;10902;48.158;8.634;2023-01-29T02:48:02;-1.60;99.90
21481;DHT22;10902;48.158;8.634;2023-01-29T02:50:36;-1.60;99.90
21481;DHT22;10902;48.158;8.634;2023-01-29T02:55:39;-1.60;99.90
21481;DHT22;10902;48.158;8.634;2023-01-29T02:58:21;-1.70;99.90
21481;DHT22;10902;48.158;8.634;2023-01-29T03:00:52;-1.70;99.90
21481;DHT22;10902;48.158;8.634;2023-01-29T03:03:29;-1.70;99.90
21481;DHT22;10902;48.158;8.634;2023-01-29T03:08:57;-1.60;99.90
21481;DHT22;10902;48.158;8.634;2023-01-29T03:11:31;-1.30;99.90
21481;DHT22;10902;48.158;8.634;2023-01-29T03:14:02;-1.30;99.90
21481;DHT22;10902;48.158;8.634;2023-01-29T03:19:21;-1.40;99.90
21481;DHT22;10902;48.158;8.634;2023-01-29T03:21:54;-1.50;99.90
21481;DHT22;10902;48.158;8.634;2023-01-29T03:27:51;-1.60;99.90
21481;DHT22;10902;48.158;8.634;2023-01-29T03:30:41;-1.60;99.90
21481;DHT22;10902;48.158;8.634;2023-01-29T03:33:31;-1.70;99.90
21481;DHT22;10902;48.158;8.634;2023-01-29T03:36:13;-1.70;99.90
21481;DHT22;10902;48.158;8.634;2023-01-29T03:38:41;-1.70;99.90
21481;DHT22;10902;48.158;8.634;2023-01-29T03:41:18;-1.70;99.90
21481;DHT22;10902;48.158;8.634;2023-01-29T03:46:56;-1.70;99.90
21481;DHT22;10902;48.158;8.634;2023-01-29T03:52:14;-1.70;99.90
21481;DHT22;10902;48.158;8.634;2023-01-29T03:54:56;-1.70;99.90
21481;DHT22;10902;48.158;8.634;2023-01-29T03:57:41;-1.70;99.90
21481;DHT22;10902;48.158;8.634;2023-01-29T04:00:16;-1.70;99.90
21481;DHT22;10902;48.158;8.634;2023-01-29T04:05:18;-1.70;99.90
21481;DHT22;10902;48.158;8.634;2023-01-29T04:07:46;-1.70;99.90
21481;DHT22;10902;48.158;8.634;2023-01-29T04:10:16;-1.70;99.90
21481;DHT22;10902;48.158;8.634;2023-01-29T04:15:16;-1.80;99.90
21481;DHT22;10902;48.158;8.634;2023-01-29T04:17:49;-1.80;99.90
21481;DHT22;10902;48.158;8.634;2023-01-29T04:20:16;-1.70;99.90
21481;DHT22;10902;48.158;8.634;2023-01-29T04:22:45;-1.60;99.90
21481;DHT22;10902;48.158;8.634;2023-01-29T04:25:15;-1.60;99.90
21481;DHT22;10902;48.158;8.634;2023-01-29T04:28:13;-1.60;99.90
21481;DHT22;10902;48.158;8.634;2023-01-29T04:31:05;-1.70;99.90
21481;DHT22;10902;48.158;8.634;2023-01-29T04:33:48;-1.80;99.90
21481;DHT22;10902;48.158;8.634;2023-01-29T04:42:14;-1.80;99.90
21481;DHT22;10902;48.158;8.634;2023-01-29T04:44:53;-1.90;99.90
21481;DHT22;10902;48.158;8.634;2023-01-29T04:47:40;-2.00;99.90
21481;DHT22;10902;48.158;8.634;2023-01-29T04:50:27;-2.00;99.90
21481;DHT22;10902;48.158;8.634;2023-01-29T04:53:12;-2.00;99.90
21481;DHT22;10902;48.158;8.634;2023-01-29T04:58:40;-2.00;99.90
21481;DHT22;10902;48.158;8.634;2023-01-29T05:01:10;-1.90;99.90
21481;DHT22;10902;48.158;8.634;2023-01-29T05:03:39;-1.90;99.90
21481;DHT22;10902;48.158;8.634;2023-01-29T05:06:06;-1.90;99.90
21481;DHT22;10902;48.158;8.634;2023-01-29T05:08:36;-1.90;99.90
21481;DHT22;10902;48.158;8.634;2023-01-29T05:11:02;-1.90;99.90
21481;DHT22;10902;48.158;8.634;2023-01-29T05:13:30;-1.90;99.90
21481;DHT22;10902;48.158;8.634;2023-01-29T05:16:01;-1.90;99.90
21481;DHT22;10902;48.158;8.634;2023-01-29T05:18:28;-1.90;99.90
21481;DHT22;10902;48.158;8.634;2023-01-29T05:20:55;-1.90;99.90
21481;DHT22;10902;48.158;8.634;2023-01-29T05:23:22;-2.00;99.90
21481;DHT22;10902;48.158;8.634;2023-01-29T05:25:49;-2.00;99.90
21481;DHT22;10902;48.158;8.634;2023-01-29T05:28:16;-1.90;99.90
21481;DHT22;10902;48.158;8.634;2023-01-29T05:30:47;-1.90;99.90
21481;DHT22;10902;48.158;8.634;2023-01-29T05:33:21;-1.90;99.90
21481;DHT22;10902;48.158;8.634;2023-01-29T05:35:47;-1.90;99.90
21481;DHT22;10902;48.158;8.634;2023-01-29T05:38:14;-2.00;99.90
21481;DHT22;10902;48.158;8.634;2023-01-29T05:40:40;-1.90;99.90
21481;DHT22;10902;48.158;8.634;2023-01-29T05:43:20;-2.00;99.90
21481;DHT22;10902;48.158;8.634;2023-01-29T05:45:57;-1.90;99.90
21481;DHT22;10902;48.158;8.634;2023-01-29T05:48:24;-1.90;99.90
21481;DHT22;10902;48.158;8.634;2023-01-29T05:50:51;-2.00;99.90
21481;DHT22;10902;48.158;8.634;2023-01-29T05:53:17;-1.90;99.90
21481;DHT22;10902;48.158;8.634;2023-01-29T05:55:44;-1.90;99.90
21481;DHT22;10902;48.158;8.634;2023-01-29T05:58:10;-2.00;99.90
21481;DHT22;10902;48.158;8.634;2023-01-29T06:00:35;-2.00;99.90
21481;DHT22;10902;48.158;8.634;2023-01-29T06:03:01;-2.10;99.90
21481;DHT22;10902;48.158;8.634;2023-01-29T06:05:27;-2.10;99.90
21481;DHT22;10902;48.158;8.634;2023-01-29T06:07:52;-2.10;99.90
21481;DHT22;10902;48.158;8.634;2023-01-29T06:10:18;-2.10;99.90
21481;DHT22;10902;48.158;8.634;2023-01-29T06:12:44;-2.00;99.90
21481;DHT22;10902;48.158;8.634;2023-01-29T06:15:11;-2.00;99.90
21481;DHT22;10902;48.158;8.634;2023-01-29T06:17:36;-2.00;99.90
21481;DHT22;10902;48.158;8.634;2023-01-29T06:20:03;-2.10;99.90
21481;DHT22;10902;48.158;8.634;2023-01-29T06:22:29;-2.10;99.90
21481;DHT22;10902;48.158;8.634;2023-01-29T06:24:55;-2.10;99.90
21481;DHT22;10902;48.158;8.634;2023-01-29T06:27:20;-2.20;99.90
21481;DHT22;10902;48.158;8.634;2023-01-29T06:29:46;-2.20;99.90
21481;DHT22;10902;48.158;8.634;2023-01-29T06:32:11;-2.10;99.90
21481;DHT22;10902;48.158;8.634;2023-01-29T06:34:37;-2.10;99.90
21481;DHT22;10902;48.158;8.634;2023-01-29T06:37:02;-2.10;99.90
21481;DHT22;10902;48.158;8.634;2023-01-29T06:39:28;-2.10;99.90
21481;DHT22;10902;48.158;8.634;2023-01-29T06:41:54;-2.10;99.90
21481;DHT22;10902;48.158;8.634;2023-01-29T06:44:19;-2.10;99.90
21481;DHT22;10902;48.158;8.634;2023-01-29T06:46:45;-2.10;99.90
21481;DHT22;10902;48.158;8.634;2023-01-29T06:49:10;-2.20;99.90
21481;DHT22;10902;48.158;8.634;2023-01-29T06:51:36;-2.20;99.90
21481;DHT22;10902;48.158;8.634;2023-01-29T06:54:02;-2.20;99.90
21481;DHT22;10902;48.158;8.634;2023-01-29T06:56:27;-2.20;99.90
21481;DHT22;10902;48.158;8.634;2023-01-29T06:58:53;-2.20;99.90
21481;DHT22;10902;48.158;8.634;2023-01-29T07:01:19;-2.30;99.90
21481;DHT22;10902;48.158;8.634;2023-01-29T07:03:48;-2.20;99.90
21481;DHT22;10902;48.158;8.634;2023-01-29T07:06:14;-2.20;99.90
21481;DHT22;10902;48.158;8.634;2023-01-29T07:08:39;-2.10;99.90
21481;DHT22;10902;48.158;8.634;2023-01-29T07:11:06;-2.20;99.90
21481;DHT22;10902;48.158;8.634;2023-01-29T07:13:32;-2.20;99.90
21481;DHT22;10902;48.158;8.634;2023-01-29T07:16:02;-2.20;99.90
21481;DHT22;10902;48.158;8.634;2023-01-29T07:18:28;-2.30;99.90
21481;DHT22;10902;48.158;8.634;2023-01-29T07:20:54;-2.20;99.90
21481;DHT22;10902;48.158;8.634;2023-01-29T07:23:20;-2.20;99.90
21481;DHT22;10902;48.158;8.634;2023-01-29T07:25:46;-2.10;99.90
21481;DHT22;10902;48.158;8.634;2023-01-29T07:28:14;-2.10;99.90
21481;DHT22;10902;48.158;8.634;2023-01-29T07:30:40;-2.20;99.90
21481;DHT22;10902;48.158;8.634;2023-01-29T07:33:08;-2.30;99.90
21481;DHT22;10902;48.158;8.634;2023-01-29T07:35:38;-2.20;99.90
21481;DHT22;10902;48.158;8.634;2023-01-29T07:38:05;-2.10;99.90
21481;DHT22;10902;48.158;8.634;2023-01-29T07:40:31;-2.10;99.90
21481;DHT22;10902;48.158;8.634;2023-01-29T07:42:58;-2.00;99.90
21481;DHT22;10902;48.158;8.634;2023-01-29T07:45:24;-1.90;99.90
21481;DHT22;10902;48.158;8.634;2023-01-29T07:47:53;-1.80;99.90
21481;DHT22;10902;48.158;8.634;2023-01-29T07:50:24;-1.80;99.90
21481;DHT22;10902;48.158;8.634;2023-01-29T07:52:50;-1.80;99.90
21481;DHT22;10902;48.158;8.634;2023-01-29T07:55:16;-1.80;99.90
21481;DHT22;10902;48.158;8.634;2023-01-29T07:57:42;-1.70;99.90
21481;DHT22;10902;48.158;8.634;2023-01-29T08:00:08;-1.70;99.90
21481;DHT22;10902;48.158;8.634;2023-01-29T08:02:34;-2.00;99.90
21481;DHT22;10902;48.158;8.634;2023-01-29T08:05:00;-2.00;99.90
21481;DHT22;10902;48.158;8.634;2023-01-29T08:07:25;-2.00;99.90
21481;DHT22;10902;48.158;8.634;2023-01-29T08:09:51;-2.00;99.90
21481;DHT22;10902;48.158;8.634;2023-01-29T08:12:17;-2.00;99.90
21481;DHT22;10902;48.158;8.634;2023-01-29T08:14:42;-2.00;99.90
21481;DHT22;10902;48.158;8.634;2023-01-29T08:17:10;-2.00;99.90
21481;DHT22;10902;48.158;8.634;2023-01-29T08:19:36;-1.90;99.90
21481;DHT22;10902;48.158;8.634;2023-01-29T08:22:03;-1.70;99.90
21481;DHT22;10902;48.158;8.634;2023-01-29T08:24:28;-1.60;99.90
21481;DHT22;10902;48.158;8.634;2023-01-29T08:26:54;-1.40;99.90
21481;DHT22;10902;48.158;8.634;2023-01-29T08:29:19;-1.30;99.90
21481;DHT22;10902;48.158;8.634;2023-01-29T08:31:45;-1.30;99.90
21481;DHT22;10902;48.158;8.634;2023-01-29T08:34:10;-1.20;99.90
21481;DHT22;10902;48.158;8.634;2023-01-29T08:36:36;-1.10;99.90
21481;DHT22;10902;48.158;8.634;2023-01-29T08:39:02;-1.10;99.90
21481;DHT22;10902;48.158;8.634;2023-01-29T08:41:27;-1.10;99.90
21481;DHT22;10902;48.158;8.634;2023-01-29T08:43:53;-1.00;99.90
21481;DHT22;10902;48.158;8.634;2023-01-29T08:46:18;-1.10;99.90
21481;DHT22;10902;48.158;8.634;2023-01-29T08:48:44;-1.10;99.90
21481;DHT22;10902;48.158;8.634;2023-01-29T08:51:10;-1.10;99.90
21481;DHT22;10902;48.158;8.634;2023-01-29T08:53:35;-1.00;99.90
21481;DHT22;10902;48.158;8.634;2023-01-29T08:56:01;-1.00;99.90
21481;DHT22;10902;48.158;8.634;2023-01-29T08:58:26;-1.00;99.90
21481;DHT22;10902;48.158;8.634;2023-01-29T09:00:52;-0.90;99.90
21481;DHT22;10902;48.158;8.634;2023-01-29T09:03:17;-0.80;99.90
21481;DHT22;10902;48.158;8.634;2023-01-29T09:05:43;-0.80;99.90
21481;DHT22;10902;48.158;8.634;2023-01-29T09:08:11;-0.70;99.90
21481;DHT22;10902;48.158;8.634;2023-01-29T09:10:36;-0.70;99.90
21481;DHT22;10902;48.158;8.634;2023-01-29T09:13:02;-0.70;99.90
21481;DHT22;10902;48.158;8.634;2023-01-29T09:15:28;-0.60;99.90
21481;DHT22;10902;48.158;8.634;2023-01-29T09:17:54;-0.60;99.90
21481;DHT22;10902;48.158;8.634;2023-01-29T09:20:19;-0.40;99.90
21481;DHT22;10902;48.158;8.634;2023-01-29T09:22:45;-0.30;99.90
21481;DHT22;10902;48.158;8.634;2023-01-29T09:25:11;-0.40;99.90
21481;DHT22;10902;48.158;8.634;2023-01-29T09:27:37;-0.30;99.90
21481;DHT22;10902;48.158;8.634;2023-01-29T09:30:04;-0.30;99.90
21481;DHT22;10902;48.158;8.634;2023-01-29T09:32:32;-0.10;99.90
21481;DHT22;10902;48.158;8.634;2023-01-29T09:34:58;0.00;99.90
21481;DHT22;10902;48.158;8.634;2023-01-29T09:37:23;-0.10;99.90
21481;DHT22;10902;48.158;8.634;2023-01-29T09:39:49;-0.50;99.90
21481;DHT22;10902;48.158;8.634;2023-01-29T09:42:17;-0.60;99.90
21481;DHT22;10902;48.158;8.634;2023-01-29T09:47:34;-0.70;99.90
21481;DHT22;10902;48.158;8.634;2023-01-29T09:52:42;-0.70;99.90
21481;DHT22;10902;48.158;8.634;2023-01-29T09:55:29;-0.40;99.90
21481;DHT22;10902;48.158;8.634;2023-01-29T09:58:04;-0.50;99.90
21481;DHT22;10902;48.158;8.634;2023-01-29T10:00:33;-0.50;99.90
21481;DHT22;10902;48.158;8.634;2023-01-29T10:03:23;-0.30;99.90
21481;DHT22;10902;48.158;8.634;2023-01-29T10:12:05;0.60;99.90
21481;DHT22;10902;48.158;8.634;2023-01-29T10:14:48;0.70;99.90
21481;DHT22;10902;48.158;8.634;2023-01-29T10:22:51;1.10;99.90
21481;DHT22;10902;48.158;8.634;2023-01-29T10:25:21;1.20;99.90
21481;DHT22;10902;48.158;8.634;2023-01-29T10:27:57;1.30;99.90
21481;DHT22;10902;48.158;8.634;2023-01-29T10:30:37;1.20;99.90
21481;DHT22;10902;48.158;8.634;2023-01-29T10:33:05;0.60;99.90
21481;DHT22;10902;48.158;8.634;2023-01-29T10:35:41;0.30;99.90
21481;DHT22;10902;48.158;8.634;2023-01-29T10:38:23;0.20;99.90
21481;DHT22;10902;48.158;8.634;2023-01-29T10:49:33;0.50;99.90
21481;DHT22;10902;48.158;8.634;2023-01-29T10:52:09;0.70;99.90
21481;DHT22;10902;48.158;8.634;2023-01-29T10:57:33;1.40;99.90
21481;DHT22;10902;48.158;8.634;2023-01-29T11:00:09;0.90;99.90
21481;DHT22;10902;48.158;8.634;2023-01-29T11:02:45;0.30;99.90
21481;DHT22;10902;48.158;8.634;2023-01-29T11:05:43;0.50;99.90
21481;DHT22;10902;48.158;8.634;2023-01-29T11:08:18;0.90;99.90
21481;DHT22;10902;48.158;8.634;2023-01-29T11:10:53;1.20;99.90
21481;DHT22;10902;48.158;8.634;2023-01-29T11:13:21;1.90;99.90
21481;DHT22;10902;48.158;8.634;2023-01-29T11:15:51;2.20;99.90
21481;DHT22;10902;48.158;8.634;2023-01-29T11:18:17;2.00;99.90
21481;DHT22;10902;48.158;8.634;2023-01-29T11:20:44;2.00;99.90
21481;DHT22;10902;48.158;8.634;2023-01-29T11:23:39;2.20;99.90
21481;DHT22;10902;48.158;8.634;2023-01-29T11:26:05;1.50;99.90
21481;DHT22;10902;48.158;8.634;2023-01-29T11:28:40;1.50;99.90
21481;DHT22;10902;48.158;8.634;2023-01-29T11:31:26;1.80;99.90
21481;DHT22;10902;48.158;8.634;2023-01-29T11:34:04;2.30;99.90
21481;DHT22;10902;48.158;8.634;2023-01-29T11:36:35;2.10;99.90
21481;DHT22;10902;48.158;8.634;2023-01-29T11:39:21;1.60;99.90
21481;DHT22;10902;48.158;8.634;2023-01-29T11:41:55;1.90;99.90
21481;DHT22;10902;48.158;8.634;2023-01-29T11:44:41;2.10;99.90
21481;DHT22;10902;48.158;8.634;2023-01-29T11:47:27;2.80;99.90
21481;DHT22;10902;48.158;8.634;2023-01-29T11:50:01;2.60;99.90
21481;DHT22;10902;48.158;8.634;2023-01-29T11:52:36;3.20;99.90
21481;DHT22;10902;48.158;8.634;2023-01-29T11:55:12;3.60;99.90
21481;DHT22;10902;48.158;8.634;2023-01-29T11:57:41;3.60;99.90
21481;DHT22;10902;48.158;8.634;2023-01-29T12:00:27;4.00;99.90
21481;DHT22;10902;48.158;8.634;2023-01-29T12:05:27;4.20;99.90
21481;DHT22;10902;48.158;8.634;2023-01-29T12:07:56;4.30;99.90
21481;DHT22;10902;48.158;8.634;2023-01-29T12:15:36;3.60;99.90
21481;DHT22;10902;48.158;8.634;2023-01-29T12:20:50;3.20;99.90
21481;DHT22;10902;48.158;8.634;2023-01-29T12:31:33;3.50;99.90
21481;DHT22;10902;48.158;8.634;2023-01-29T12:36:55;3.60;99.90
21481;DHT22;10902;48.158;8.634;2023-01-29T12:39:23;3.70;99.90
21481;DHT22;10902;48.158;8.634;2023-01-29T12:41:54;2.90;99.90
21481;DHT22;10902;48.158;8.634;2023-01-29T12:44:43;3.00;99.90
21481;DHT22;10902;48.158;8.634;2023-01-29T12:47:18;2.80;99.90
21481;DHT22;10902;48.158;8.634;2023-01-29T12:49:49;3.20;99.90
21481;DHT22;10902;48.158;8.634;2023-01-29T12:54:53;3.20;99.90
21481;DHT22;10902;48.158;8.634;2023-01-29T12:57:31;3.50;99.90
21481;DHT22;10902;48.158;8.634;2023-01-29T13:00:04;3.20;99.90
21481;DHT22;10902;48.158;8.634;2023-01-29T13:02:35;2.90;99.90
21481;DHT22;10902;48.158;8.634;2023-01-29T13:05:21;2.70;99.90
21481;DHT22;10902;48.158;8.634;2023-01-29T13:07:52;2.90;99.90
21481;DHT22;10902;48.158;8.634;2023-01-29T13:10:28;2.20;99.90
21481;DHT22;10902;48.158;8.634;2023-01-29T13:13:00;1.30;99.90
21481;DHT22;10902;48.158;8.634;2023-01-29T13:15:38;0.60;99.90
21481;DHT22;10902;48.158;8.634;2023-01-29T13:21:01;0.40;99.90
21481;DHT22;10902;48.158;8.634;2023-01-29T13:23:33;0.10;99.90
21481;DHT22;10902;48.158;8.634;2023-01-29T13:25:59;0.30;99.90
21481;DHT22;10902;48.158;8.634;2023-01-29T13:28:26;0.30;99.90
21481;DHT22;10902;48.158;8.634;2023-01-29T13:33:37;-0.20;99.90
21481;DHT22;10902;48.158;8.634;2023-01-29T13:36:03;-0.60;99.90
21481;DHT22;10902;48.158;8.634;2023-01-29T13:38:32;-0.30;99.90
21481;DHT22;10902;48.158;8.634;2023-01-29T13:41:04;-0.50;99.90
21481;DHT22;10902;48.158;8.634;2023-01-29T13:43:35;-0.50;99.90
21481;DHT22;10902;48.158;8.634;2023-01-29T13:46:11;-0.20;99.90
21481;DHT22;10902;48.158;8.634;2023-01-29T13:48:43;-0.10;99.90
21481;DHT22;10902;48.158;8.634;2023-01-29T13:51:13;-0.20;99.90
21481;DHT22;10902;48.158;8.634;2023-01-29T13:53:42;-0.40;99.90
21481;DHT22;10902;48.158;8.634;2023-01-29T13:58:52;-0.30;99.90
21481;DHT22;10902;48.158;8.634;2023-01-29T14:04:29;-0.50;99.90
21481;DHT22;10902;48.158;8.634;2023-01-29T14:06:59;-0.60;99.90
21481;DHT22;10902;48.158;8.634;2023-01-29T14:11:55;-0.40;99.90
21481;DHT22;10902;48.158;8.634;2023-01-29T14:17:15;-0.30;99.90
21481;DHT22;10902;48.158;8.634;2023-01-29T14:19:49;-0.40;99.90
21481;DHT22;10902;48.158;8.634;2023-01-29T14:22:24;-0.80;99.90
21481;DHT22;10902;48.158;8.634;2023-01-29T14:25:01;-1.00;99.90
21481;DHT22;10902;48.158;8.634;2023-01-29T14:27:28;-1.10;99.90
21481;DHT22;10902;48.158;8.634;2023-01-29T14:30:05;-1.10;99.90
21481;DHT22;10902;48.158;8.634;2023-01-29T14:32:31;-1.40;99.90
21481;DHT22;10902;48.158;8.634;2023-01-29T14:35:03;-1.30;99.90
21481;DHT22;10902;48.158;8.634;2023-01-29T14:37:39;-1.20;99.90
21481;DHT22;10902;48.158;8.634;2023-01-29T14:42:37;-1.30;99.90
21481;DHT22;10902;48.158;8.634;2023-01-29T14:45:25;-1.30;99.90
21481;DHT22;10902;48.158;8.634;2023-01-29T14:47:53;-1.50;99.90
21481;DHT22;10902;48.158;8.634;2023-01-29T14:56:01;-1.30;99.90
21481;DHT22;10902;48.158;8.634;2023-01-29T15:04:16;-1.30;99.90
21481;DHT22;10902;48.158;8.634;2023-01-29T15:06:55;-1.40;99.90
21481;DHT22;10902;48.158;8.634;2023-01-29T15:09:41;-1.40;99.90
21481;DHT22;10902;48.158;8.634;2023-01-29T15:12:27;-1.40;99.90
21481;DHT22;10902;48.158;8.634;2023-01-29T15:17:35;-1.50;99.90
21481;DHT22;10902;48.158;8.634;2023-01-29T15:22:51;-1.30;99.90
21481;DHT22;10902;48.158;8.634;2023-01-29T15:25:17;-1.30;99.90
21481;DHT22;10902;48.158;8.634;2023-01-29T15:27:44;-1.40;99.90
21481;DHT22;10902;48.158;8.634;2023-01-29T15:32:40;-1.40;99.90
21481;DHT22;10902;48.158;8.634;2023-01-29T15:35:08;-1.40;99.90
21481;DHT22;10902;48.158;8.634;2023-01-29T15:37:35;-1.40;99.90
21481;DHT22;10902;48.158;8.634;2023-01-29T15:40:03;-1.40;99.90
21481;DHT22;10902;48.158;8.634;2023-01-29T15:42:43;-1.30;99.90
21481;DHT22;10902;48.158;8.634;2023-01-29T15:45:30;-1.30;99.90
21481;DHT22;10902;48.158;8.634;2023-01-29T15:48:06;-1.20;99.90
21481;DHT22;10902;48.158;8.634;2023-01-29T15:50:35;-1.30;99.90
21481;DHT22;10902;48.158;8.634;2023-01-29T15:53:08;-1.40;99.90
21481;DHT22;10902;48.158;8.634;2023-01-29T15:55:38;-1.40;99.90
21481;DHT22;10902;48.158;8.634;2023-01-29T15:58:06;-1.40;99.90
21481;DHT22;10902;48.158;8.634;2023-01-29T16:00:36;-1.30;99.90
21481;DHT22;10902;48.158;8.634;2023-01-29T16:03:13;-1.30;99.90
21481;DHT22;10902;48.158;8.634;2023-01-29T16:05:40;-1.30;99.90
21481;DHT22;10902;48.158;8.634;2023-01-29T16:08:07;-1.30;99.90
21481;DHT22;10902;48.158;8.634;2023-01-29T16:10:37;-1.40;99.90
21481;DHT22;10902;48.158;8.634;2023-01-29T16:13:05;-1.40;99.90
21481;DHT22;10902;48.158;8.634;2023-01-29T16:15:38;-1.40;99.90
21481;DHT22;10902;48.158;8.634;2023-01-29T16:18:24;-1.50;99.90
21481;DHT22;10902;48.158;8.634;2023-01-29T16:20:54;-1.60;99.90
21481;DHT22;10902;48.158;8.634;2023-01-29T16:23:33;-1.70;99.90
21481;DHT22;10902;48.158;8.634;2023-01-29T16:26:06;-1.70;99.90
21481;DHT22;10902;48.158;8.634;2023-01-29T16:28:38;-1.80;99.90
21481;DHT22;10902;48.158;8.634;2023-01-29T16:31:04;-1.80;99.90
21481;DHT22;10902;48.158;8.634;2023-01-29T16:33:34;-1.80;99.90
21481;DHT22;10902;48.158;8.634;2023-01-29T16:36:02;-1.80;99.90
21481;DHT22;10902;48.158;8.634;2023-01-29T16:38:32;-1.80;99.90
21481;DHT22;10902;48.158;8.634;2023-01-29T16:43:51;-1.90;99.90
21481;DHT22;10902;48.158;8.634;2023-01-29T16:46:26;-1.90;99.90
21481;DHT22;10902;48.158;8.634;2023-01-29T16:48:56;-1.90;99.90
21481;DHT22;10902;48.158;8.634;2023-01-29T16:51:25;-2.00;99.90
21481;DHT22;10902;48.158;8.634;2023-01-29T16:54:00;-2.00;99.90
21481;DHT22;10902;48.158;8.634;2023-01-29T16:56:31;-2.00;99.90
21481;DHT22;10902;48.158;8.634;2023-01-29T16:58:58;-2.00;99.90
21481;DHT22;10902;48.158;8.634;2023-01-29T17:01:26;-2.00;99.90
21481;DHT22;10902;48.158;8.634;2023-01-29T17:04:01;-2.10;99.90
21481;DHT22;10902;48.158;8.634;2023-01-29T17:06:30;-2.10;99.90
21481;DHT22;10902;48.158;8.634;2023-01-29T17:08:56;-2.20;99.90
21481;DHT22;10902;48.158;8.634;2023-01-29T17:11:37;-2.30;99.90
21481;DHT22;10902;48.158;8.634;2023-01-29T17:14:05;-2.30;99.90
21481;DHT22;10902;48.158;8.634;2023-01-29T17:16:34;-2.30;99.90
21481;DHT22;10902;48.158;8.634;2023-01-29T17:19:00;-2.40;99.90
21481;DHT22;10902;48.158;8.634;2023-01-29T17:21:28;-2.40;99.90
21481;DHT22;10902;48.158;8.634;2023-01-29T17:23:54;-2.50;99.90
21481;DHT22;10902;48.158;8.634;2023-01-29T17:26:22;-2.60;99.90
21481;DHT22;10902;48.158;8.634;2023-01-29T17:28:51;-2.60;99.90
21481;DHT22;10902;48.158;8.634;2023-01-29T17:31:18;-2.70;99.90
21481;DHT22;10902;48.158;8.634;2023-01-29T17:33:43;-2.80;99.90
21481;DHT22;10902;48.158;8.634;2023-01-29T17:36:11;-2.80;99.90
21481;DHT22;10902;48.158;8.634;2023-01-29T17:38:38;-2.80;99.90
21481;DHT22;10902;48.158;8.634;2023-01-29T17:41:07;-2.90;99.90
21481;DHT22;10902;48.158;8.634;2023-01-29T17:43:33;-2.90;99.90
21481;DHT22;10902;48.158;8.634;2023-01-29T17:45:59;-2.90;99.90
21481;DHT22;10902;48.158;8.634;2023-01-29T17:48:26;-2.80;99.90
21481;DHT22;10902;48.158;8.634;2023-01-29T17:50:55;-2.80;99.90
21481;DHT22;10902;48.158;8.634;2023-01-29T17:53:21;-2.70;99.90
21481;DHT22;10902;48.158;8.634;2023-01-29T17:55:47;-2.50;99.90
21481;DHT22;10902;48.158;8.634;2023-01-29T17:58:18;-2.40;99.90
21481;DHT22;10902;48.158;8.634;2023-01-29T18:00:45;-2.30;99.90
21481;DHT22;10902;48.158;8.634;2023-01-29T18:03:11;-2.20;99.90
21481;DHT22;10902;48.158;8.634;2023-01-29T18:05:37;-2.30;99.90
21481;DHT22;10902;48.158;8.634;2023-01-29T18:08:18;-2.30;99.90